Ana Sayfa
METAR-TAF:

METAR-TAF

Havaalanları :

Washington, Pensilvanya, Amerika Birleşik Devletleri

Enlem: 40-08N, Boylam: 080-17W, yükseklik: 361 m

Güncel hava durumu gözlemi

Rapor saat 22:56 UTC de 1 saat ve 53 dakika önce yapıldı.
Rüzgar kuzey/kuzeybatıdan 5 kt
Sıcaklık 22°C
Nem 73%
Basınç 1018 hPa
Görüş mesafesi: 16.1 km
Açık gökyüzü

METAR: KAFJ 112256Z AUTO 34005KT 10SM CLR 22/17 A3005 RMK AO2 SLP171 T02220172

Saat: 20:49 (00:49 UTC)


TAF: eksik

4.000'den fazla havaalanı için hava durumu gözlemleri ve tahminleri (METAR ve TAF raporları).

Kullanılabilir istasyonlar harita üzerinde sarı ve kırmızı noktalarla gösterilir.

İstasyonun adını görmek için fareyi noktanın üzerinde gezdirin.

Sonrasında hava gözlem ve tahminlerini görmek için tıklayın.

Haritayı değiştirmek için: yaklaştırmak için siyah artı işaretli yeşil düğmeye ve uzaklaştırmak için de eksi işaretli düğmeye hızla tıklayın; bitişik haritalar için yeşil okları kullanın.


METAR-TAF: